sensor_id;sensor_type;location;lat;lon;timestamp;P1;durP1;ratioP1;P2;durP2;ratioP2
37047;SDS011;23227;48.780;9.210;2023-04-25T00:02:30;2.37;;;1.10;;
37047;SDS011;23227;48.780;9.210;2023-04-25T00:05:36;0.90;;;0.90;;
37047;SDS011;23227;48.780;9.210;2023-04-25T00:08:40;3.83;;;1.43;;
37047;SDS011;23227;48.780;9.210;2023-04-25T00:11:44;2.13;;;1.55;;
37047;SDS011;23227;48.780;9.210;2023-04-25T00:14:46;2.47;;;1.50;;
37047;SDS011;23227;48.780;9.210;2023-04-25T00:17:50;1.30;;;1.20;;
37047;SDS011;23227;48.780;9.210;2023-04-25T00:20:54;1.30;;;1.10;;
37047;SDS011;23227;48.780;9.210;2023-04-25T00:23:56;2.72;;;1.02;;
37047;SDS011;23227;48.780;9.210;2023-04-25T00:27:00;3.10;;;1.27;;
37047;SDS011;23227;48.780;9.210;2023-04-25T00:30:03;1.30;;;1.20;;
37047;SDS011;23227;48.780;9.210;2023-04-25T00:33:07;3.13;;;1.23;;
37047;SDS011;23227;48.780;9.210;2023-04-25T00:36:09;2.53;;;1.00;;
37047;SDS011;23227;48.780;9.210;2023-04-25T00:39:12;1.53;;;1.00;;
37047;SDS011;23227;48.780;9.210;2023-04-25T00:42:16;1.50;;;1.03;;
37047;SDS011;23227;48.780;9.210;2023-04-25T00:45:19;1.77;;;1.00;;
37047;SDS011;23227;48.780;9.210;2023-04-25T00:48:22;1.27;;;1.10;;
37047;SDS011;23227;48.780;9.210;2023-04-25T00:51:24;2.87;;;1.00;;
37047;SDS011;23227;48.780;9.210;2023-04-25T00:54:28;1.23;;;1.10;;
37047;SDS011;23227;48.780;9.210;2023-04-25T00:57:33;1.20;;;1.10;;
37047;SDS011;23227;48.780;9.210;2023-04-25T01:00:35;2.20;;;1.23;;
37047;SDS011;23227;48.780;9.210;2023-04-25T01:03:39;5.57;;;1.40;;
37047;SDS011;23227;48.780;9.210;2023-04-25T01:06:43;6.00;;;1.17;;
37047;SDS011;23227;48.780;9.210;2023-04-25T01:09:46;1.17;;;1.08;;
37047;SDS011;23227;48.780;9.210;2023-04-25T01:12:50;2.97;;;1.10;;
37047;SDS011;23227;48.780;9.210;2023-04-25T01:15:52;1.87;;;1.20;;
37047;SDS011;23227;48.780;9.210;2023-04-25T01:18:55;3.20;;;1.33;;
37047;SDS011;23227;48.780;9.210;2023-04-25T01:21:59;1.67;;;0.90;;
37047;SDS011;23227;48.780;9.210;2023-04-25T01:25:02;1.40;;;1.13;;
37047;SDS011;23227;48.780;9.210;2023-04-25T01:28:04;1.90;;;1.35;;
37047;SDS011;23227;48.780;9.210;2023-04-25T01:31:10;4.87;;;1.67;;
37047;SDS011;23227;48.780;9.210;2023-04-25T01:34:13;1.80;;;1.27;;
37047;SDS011;23227;48.780;9.210;2023-04-25T01:37:17;2.30;;;1.57;;
37047;SDS011;23227;48.780;9.210;2023-04-25T01:40:20;5.20;;;1.70;;
37047;SDS011;23227;48.780;9.210;2023-04-25T01:43:23;2.38;;;1.30;;
37047;SDS011;23227;48.780;9.210;2023-04-25T01:46:27;1.70;;;1.37;;
37047;SDS011;23227;48.780;9.210;2023-04-25T01:49:30;1.65;;;1.30;;
37047;SDS011;23227;48.780;9.210;2023-04-25T01:52:34;3.17;;;1.30;;
37047;SDS011;23227;48.780;9.210;2023-04-25T01:55:36;1.70;;;1.53;;
37047;SDS011;23227;48.780;9.210;2023-04-25T01:58:39;4.20;;;1.90;;
37047;SDS011;23227;48.780;9.210;2023-04-25T02:01:41;1.33;;;1.03;;
37047;SDS011;23227;48.780;9.210;2023-04-25T02:04:44;1.97;;;1.40;;
37047;SDS011;23227;48.780;9.210;2023-04-25T02:07:48;2.17;;;1.40;;
37047;SDS011;23227;48.780;9.210;2023-04-25T02:10:50;1.93;;;1.37;;
37047;SDS011;23227;48.780;9.210;2023-04-25T02:13:53;1.93;;;1.50;;
37047;SDS011;23227;48.780;9.210;2023-04-25T02:16:55;2.80;;;1.40;;
37047;SDS011;23227;48.780;9.210;2023-04-25T02:19:58;4.47;;;1.45;;
37047;SDS011;23227;48.780;9.210;2023-04-25T02:23:02;2.57;;;1.30;;
37047;SDS011;23227;48.780;9.210;2023-04-25T02:26:05;6.87;;;1.87;;
37047;SDS011;23227;48.780;9.210;2023-04-25T02:29:08;2.43;;;1.40;;
37047;SDS011;23227;48.780;9.210;2023-04-25T02:32:11;3.45;;;1.63;;
37047;SDS011;23227;48.780;9.210;2023-04-25T02:35:13;3.50;;;2.00;;
37047;SDS011;23227;48.780;9.210;2023-04-25T02:38:18;2.28;;;1.33;;
37047;SDS011;23227;48.780;9.210;2023-04-25T02:41:20;2.50;;;1.30;;
37047;SDS011;23227;48.780;9.210;2023-04-25T02:44:23;2.73;;;1.37;;
37047;SDS011;23227;48.780;9.210;2023-04-25T02:47:25;3.27;;;1.57;;
37047;SDS011;23227;48.780;9.210;2023-04-25T02:50:28;2.63;;;1.50;;
37047;SDS011;23227;48.780;9.210;2023-04-25T02:53:32;1.93;;;1.40;;
37047;SDS011;23227;48.780;9.210;2023-04-25T02:56:35;3.97;;;1.20;;
37047;SDS011;23227;48.780;9.210;2023-04-25T02:59:37;3.03;;;1.30;;
37047;SDS011;23227;48.780;9.210;2023-04-25T03:02:40;3.27;;;1.30;;
37047;SDS011;23227;48.780;9.210;2023-04-25T03:05:42;4.40;;;1.67;;
37047;SDS011;23227;48.780;9.210;2023-04-25T03:08:46;3.30;;;1.25;;
37047;SDS011;23227;48.780;9.210;2023-04-25T03:11:49;3.90;;;1.47;;
37047;SDS011;23227;48.780;9.210;2023-04-25T03:14:51;2.60;;;1.30;;
37047;SDS011;23227;48.780;9.210;2023-04-25T03:17:54;2.03;;;1.53;;
37047;SDS011;23227;48.780;9.210;2023-04-25T03:20:57;3.13;;;1.33;;
37047;SDS011;23227;48.780;9.210;2023-04-25T03:24:02;1.67;;;1.10;;
37047;SDS011;23227;48.780;9.210;2023-04-25T03:27:05;1.63;;;1.40;;
37047;SDS011;23227;48.780;9.210;2023-04-25T03:30:08;2.47;;;1.60;;
37047;SDS011;23227;48.780;9.210;2023-04-25T03:33:13;5.10;;;1.40;;
37047;SDS011;23227;48.780;9.210;2023-04-25T03:36:19;5.90;;;2.23;;
37047;SDS011;23227;48.780;9.210;2023-04-25T03:39:23;3.40;;;1.67;;
37047;SDS011;23227;48.780;9.210;2023-04-25T03:42:25;3.23;;;1.60;;
37047;SDS011;23227;48.780;9.210;2023-04-25T03:45:28;2.70;;;1.53;;
37047;SDS011;23227;48.780;9.210;2023-04-25T03:48:30;3.67;;;1.70;;
37047;SDS011;23227;48.780;9.210;2023-04-25T03:51:33;4.90;;;1.80;;
37047;SDS011;23227;48.780;9.210;2023-04-25T03:54:37;2.67;;;1.60;;
37047;SDS011;23227;48.780;9.210;2023-04-25T03:57:39;5.40;;;1.70;;
37047;SDS011;23227;48.780;9.210;2023-04-25T04:00:42;2.97;;;1.60;;
37047;SDS011;23227;48.780;9.210;2023-04-25T04:03:45;4.53;;;1.93;;
37047;SDS011;23227;48.780;9.210;2023-04-25T04:06:47;4.90;;;1.70;;
37047;SDS011;23227;48.780;9.210;2023-04-25T04:09:52;2.95;;;1.55;;
37047;SDS011;23227;48.780;9.210;2023-04-25T04:12:54;4.00;;;1.90;;
37047;SDS011;23227;48.780;9.210;2023-04-25T04:15:57;7.43;;;2.03;;
37047;SDS011;23227;48.780;9.210;2023-04-25T04:19:00;2.97;;;1.90;;
37047;SDS011;23227;48.780;9.210;2023-04-25T04:22:03;4.27;;;2.10;;
37047;SDS011;23227;48.780;9.210;2023-04-25T04:25:09;3.10;;;1.57;;
37047;SDS011;23227;48.780;9.210;2023-04-25T04:28:12;1.60;;;1.33;;
37047;SDS011;23227;48.780;9.210;2023-04-25T04:31:15;1.65;;;1.50;;
37047;SDS011;23227;48.780;9.210;2023-04-25T04:34:20;3.17;;;1.70;;
37047;SDS011;23227;48.780;9.210;2023-04-25T04:37:23;3.97;;;1.70;;
37047;SDS011;23227;48.780;9.210;2023-04-25T04:40:27;3.73;;;2.20;;
37047;SDS011;23227;48.780;9.210;2023-04-25T04:43:31;4.97;;;1.70;;
37047;SDS011;23227;48.780;9.210;2023-04-25T04:46:34;3.45;;;1.70;;
37047;SDS011;23227;48.780;9.210;2023-04-25T04:49:39;3.50;;;1.63;;
37047;SDS011;23227;48.780;9.210;2023-04-25T04:52:42;2.08;;;1.70;;
37047;SDS011;23227;48.780;9.210;2023-04-25T04:55:46;4.18;;;2.17;;
37047;SDS011;23227;48.780;9.210;2023-04-25T04:58:48;4.67;;;1.90;;
37047;SDS011;23227;48.780;9.210;2023-04-25T05:01:52;5.13;;;1.70;;
37047;SDS011;23227;48.780;9.210;2023-04-25T05:04:55;2.55;;;1.70;;
37047;SDS011;23227;48.780;9.210;2023-04-25T05:07:58;2.92;;;1.83;;
37047;SDS011;23227;48.780;9.210;2023-04-25T05:11:02;2.97;;;1.80;;
37047;SDS011;23227;48.780;9.210;2023-04-25T05:14:05;3.07;;;1.50;;
37047;SDS011;23227;48.780;9.210;2023-04-25T05:17:08;4.60;;;2.00;;
37047;SDS011;23227;48.780;9.210;2023-04-25T05:20:11;2.88;;;1.75;;
37047;SDS011;23227;48.780;9.210;2023-04-25T05:26:19;4.33;;;2.13;;
37047;SDS011;23227;48.780;9.210;2023-04-25T05:29:21;3.20;;;1.83;;
37047;SDS011;23227;48.780;9.210;2023-04-25T05:32:24;2.80;;;1.50;;
37047;SDS011;23227;48.780;9.210;2023-04-25T05:35:27;4.03;;;1.83;;
37047;SDS011;23227;48.780;9.210;2023-04-25T05:38:30;3.60;;;1.90;;
37047;SDS011;23227;48.780;9.210;2023-04-25T05:41:36;2.50;;;1.80;;
37047;SDS011;23227;48.780;9.210;2023-04-25T05:44:39;5.00;;;2.10;;
37047;SDS011;23227;48.780;9.210;2023-04-25T05:47:41;4.53;;;1.80;;
37047;SDS011;23227;48.780;9.210;2023-04-25T05:50:44;3.22;;;1.73;;
37047;SDS011;23227;48.780;9.210;2023-04-25T05:53:47;1.83;;;1.63;;
37047;SDS011;23227;48.780;9.210;2023-04-25T05:56:51;3.53;;;1.65;;
37047;SDS011;23227;48.780;9.210;2023-04-25T05:59:54;5.03;;;2.00;;
37047;SDS011;23227;48.780;9.210;2023-04-25T06:02:57;2.80;;;1.70;;
37047;SDS011;23227;48.780;9.210;2023-04-25T06:06:00;3.47;;;1.70;;
37047;SDS011;23227;48.780;9.210;2023-04-25T06:09:03;1.85;;;1.67;;
37047;SDS011;23227;48.780;9.210;2023-04-25T06:12:07;3.50;;;1.87;;
37047;SDS011;23227;48.780;9.210;2023-04-25T06:15:09;3.03;;;1.80;;
37047;SDS011;23227;48.780;9.210;2023-04-25T06:18:28;2.43;;;1.50;;
37047;SDS011;23227;48.780;9.210;2023-04-25T06:21:31;3.43;;;1.33;;
37047;SDS011;23227;48.780;9.210;2023-04-25T06:24:33;4.78;;;1.65;;
37047;SDS011;23227;48.780;9.210;2023-04-25T06:27:38;1.70;;;1.30;;
37047;SDS011;23227;48.780;9.210;2023-04-25T06:30:40;3.10;;;1.50;;
37047;SDS011;23227;48.780;9.210;2023-04-25T06:33:43;1.90;;;1.43;;
37047;SDS011;23227;48.780;9.210;2023-04-25T06:36:46;3.47;;;1.80;;
37047;SDS011;23227;48.780;9.210;2023-04-25T06:39:48;5.67;;;1.80;;
37047;SDS011;23227;48.780;9.210;2023-04-25T06:42:52;2.47;;;1.75;;
37047;SDS011;23227;48.780;9.210;2023-04-25T06:45:55;3.57;;;1.50;;
37047;SDS011;23227;48.780;9.210;2023-04-25T06:48:58;1.85;;;1.42;;
37047;SDS011;23227;48.780;9.210;2023-04-25T06:52:01;3.00;;;1.05;;
37047;SDS011;23227;48.780;9.210;2023-04-25T06:55:04;2.40;;;1.65;;
37047;SDS011;23227;48.780;9.210;2023-04-25T06:58:08;2.03;;;1.70;;
37047;SDS011;23227;48.780;9.210;2023-04-25T07:01:11;2.57;;;1.60;;
37047;SDS011;23227;48.780;9.210;2023-04-25T07:04:14;13.70;;;2.13;;
37047;SDS011;23227;48.780;9.210;2023-04-25T07:07:17;2.33;;;1.88;;
37047;SDS011;23227;48.780;9.210;2023-04-25T07:10:20;2.88;;;1.90;;
37047;SDS011;23227;48.780;9.210;2023-04-25T07:13:24;3.28;;;1.70;;
37047;SDS011;23227;48.780;9.210;2023-04-25T07:16:27;2.37;;;1.67;;
37047;SDS011;23227;48.780;9.210;2023-04-25T07:19:30;5.18;;;2.55;;
37047;SDS011;23227;48.780;9.210;2023-04-25T07:22:33;4.03;;;2.20;;
37047;SDS011;23227;48.780;9.210;2023-04-25T07:25:35;3.15;;;1.70;;
37047;SDS011;23227;48.780;9.210;2023-04-25T07:28:40;3.80;;;2.35;;
37047;SDS011;23227;48.780;9.210;2023-04-25T07:31:42;2.10;;;1.67;;
37047;SDS011;23227;48.780;9.210;2023-04-25T07:34:45;3.70;;;2.20;;
37047;SDS011;23227;48.780;9.210;2023-04-25T07:37:48;4.33;;;2.60;;
37047;SDS011;23227;48.780;9.210;2023-04-25T07:40:50;4.70;;;2.27;;
37047;SDS011;23227;48.780;9.210;2023-04-25T07:43:54;5.43;;;2.22;;
37047;SDS011;23227;48.780;9.210;2023-04-25T07:46:57;5.37;;;2.57;;
37047;SDS011;23227;48.780;9.210;2023-04-25T07:50:01;5.73;;;3.10;;
37047;SDS011;23227;48.780;9.210;2023-04-25T07:53:04;3.60;;;2.70;;
37047;SDS011;23227;48.780;9.210;2023-04-25T07:56:06;3.73;;;2.97;;
37047;SDS011;23227;48.780;9.210;2023-04-25T07:59:11;4.43;;;2.60;;
37047;SDS011;23227;48.780;9.210;2023-04-25T08:02:14;5.80;;;3.10;;
37047;SDS011;23227;48.780;9.210;2023-04-25T08:05:17;3.53;;;2.50;;
37047;SDS011;23227;48.780;9.210;2023-04-25T08:08:23;5.53;;;2.73;;
37047;SDS011;23227;48.780;9.210;2023-04-25T08:11:25;4.90;;;3.03;;
37047;SDS011;23227;48.780;9.210;2023-04-25T08:14:29;4.77;;;2.90;;
37047;SDS011;23227;48.780;9.210;2023-04-25T08:17:37;8.43;;;3.10;;
37047;SDS011;23227;48.780;9.210;2023-04-25T08:20:40;4.13;;;3.00;;
37047;SDS011;23227;48.780;9.210;2023-04-25T08:23:42;6.60;;;3.37;;
37047;SDS011;23227;48.780;9.210;2023-04-25T08:26:45;4.90;;;2.70;;
37047;SDS011;23227;48.780;9.210;2023-04-25T08:29:49;8.13;;;3.43;;
37047;SDS011;23227;48.780;9.210;2023-04-25T08:32:52;3.87;;;2.97;;
37047;SDS011;23227;48.780;9.210;2023-04-25T08:35:55;4.93;;;2.92;;
37047;SDS011;23227;48.780;9.210;2023-04-25T08:38:58;3.60;;;2.63;;
37047;SDS011;23227;48.780;9.210;2023-04-25T08:42:01;4.72;;;2.90;;
37047;SDS011;23227;48.780;9.210;2023-04-25T08:45:07;4.23;;;3.03;;
37047;SDS011;23227;48.780;9.210;2023-04-25T08:48:11;7.27;;;2.93;;
37047;SDS011;23227;48.780;9.210;2023-04-25T08:51:17;6.03;;;3.10;;
37047;SDS011;23227;48.780;9.210;2023-04-25T08:54:25;6.60;;;2.80;;
37047;SDS011;23227;48.780;9.210;2023-04-25T08:57:36;5.60;;;3.13;;
37047;SDS011;23227;48.780;9.210;2023-04-25T09:00:40;3.78;;;2.85;;
37047;SDS011;23227;48.780;9.210;2023-04-25T09:03:43;7.43;;;3.20;;
37047;SDS011;23227;48.780;9.210;2023-04-25T09:06:47;3.73;;;2.70;;
37047;SDS011;23227;48.780;9.210;2023-04-25T09:09:49;6.53;;;2.93;;
37047;SDS011;23227;48.780;9.210;2023-04-25T09:13:01;6.37;;;2.70;;
37047;SDS011;23227;48.780;9.210;2023-04-25T09:16:07;5.93;;;3.17;;
37047;SDS011;23227;48.780;9.210;2023-04-25T09:19:19;3.97;;;2.47;;
37047;SDS011;23227;48.780;9.210;2023-04-25T09:22:38;4.73;;;3.07;;
37047;SDS011;23227;48.780;9.210;2023-04-25T09:25:41;3.17;;;2.50;;
37047;SDS011;23227;48.780;9.210;2023-04-25T09:28:44;4.07;;;2.55;;
37047;SDS011;23227;48.780;9.210;2023-04-25T09:31:50;5.00;;;3.03;;
37047;SDS011;23227;48.780;9.210;2023-04-25T09:34:53;4.23;;;2.90;;
37047;SDS011;23227;48.780;9.210;2023-04-25T09:40:59;5.23;;;2.60;;
37047;SDS011;23227;48.780;9.210;2023-04-25T09:47:09;6.37;;;3.60;;
37047;SDS011;23227;48.780;9.210;2023-04-25T09:50:15;4.03;;;3.27;;
37047;SDS011;23227;48.780;9.210;2023-04-25T09:53:20;5.43;;;3.50;;
37047;SDS011;23227;48.780;9.210;2023-04-25T09:56:22;5.83;;;3.80;;
37047;SDS011;23227;48.780;9.210;2023-04-25T09:59:25;6.75;;;3.10;;
37047;SDS011;23227;48.780;9.210;2023-04-25T10:02:30;5.43;;;3.67;;
37047;SDS011;23227;48.780;9.210;2023-04-25T10:05:34;5.83;;;3.43;;
37047;SDS011;23227;48.780;9.210;2023-04-25T10:08:37;1.95;;;1.75;;
37047;SDS011;23227;48.780;9.210;2023-04-25T10:11:39;2.10;;;1.90;;
37047;SDS011;23227;48.780;9.210;2023-04-25T10:14:42;2.40;;;1.98;;
37047;SDS011;23227;48.780;9.210;2023-04-25T10:17:46;2.30;;;1.40;;
37047;SDS011;23227;48.780;9.210;2023-04-25T10:20:50;1.40;;;1.00;;
37047;SDS011;23227;48.780;9.210;2023-04-25T10:23:54;2.23;;;1.07;;
37047;SDS011;23227;48.780;9.210;2023-04-25T10:26:57;1.48;;;1.38;;
37047;SDS011;23227;48.780;9.210;2023-04-25T10:30:00;1.30;;;1.20;;
37047;SDS011;23227;48.780;9.210;2023-04-25T10:33:13;2.10;;;1.30;;
37047;SDS011;23227;48.780;9.210;2023-04-25T10:36:19;4.35;;;1.60;;
37047;SDS011;23227;48.780;9.210;2023-04-25T10:39:24;3.13;;;2.10;;
37047;SDS011;23227;48.780;9.210;2023-04-25T10:42:28;3.10;;;2.07;;
37047;SDS011;23227;48.780;9.210;2023-04-25T10:45:31;3.03;;;2.00;;
37047;SDS011;23227;48.780;9.210;2023-04-25T10:48:55;2.90;;;2.20;;
37047;SDS011;23227;48.780;9.210;2023-04-25T10:52:11;2.43;;;1.90;;
37047;SDS011;23227;48.780;9.210;2023-04-25T10:55:15;4.17;;;2.10;;
37047;SDS011;23227;48.780;9.210;2023-04-25T10:58:20;6.07;;;2.77;;
37047;SDS011;23227;48.780;9.210;2023-04-25T11:01:24;6.40;;;2.70;;
37047;SDS011;23227;48.780;9.210;2023-04-25T11:04:30;4.00;;;3.13;;
37047;SDS011;23227;48.780;9.210;2023-04-25T11:07:34;4.50;;;2.80;;
37047;SDS011;23227;48.780;9.210;2023-04-25T11:10:40;2.17;;;1.20;;
37047;SDS011;23227;48.780;9.210;2023-04-25T11:13:43;1.92;;;1.70;;
37047;SDS011;23227;48.780;9.210;2023-04-25T11:16:46;3.10;;;1.47;;
37047;SDS011;23227;48.780;9.210;2023-04-25T11:19:50;2.87;;;1.43;;
37047;SDS011;23227;48.780;9.210;2023-04-25T11:22:52;1.87;;;1.40;;
37047;SDS011;23227;48.780;9.210;2023-04-25T11:25:56;3.50;;;2.33;;
37047;SDS011;23227;48.780;9.210;2023-04-25T11:28:58;5.30;;;2.05;;
37047;SDS011;23227;48.780;9.210;2023-04-25T11:32:02;4.22;;;2.25;;
37047;SDS011;23227;48.780;9.210;2023-04-25T11:35:06;1.90;;;1.70;;
37047;SDS011;23227;48.780;9.210;2023-04-25T11:38:09;3.30;;;2.30;;
37047;SDS011;23227;48.780;9.210;2023-04-25T11:41:12;2.42;;;1.77;;
37047;SDS011;23227;48.780;9.210;2023-04-25T11:44:15;2.87;;;2.03;;
37047;SDS011;23227;48.780;9.210;2023-04-25T11:47:18;3.53;;;1.83;;
37047;SDS011;23227;48.780;9.210;2023-04-25T11:50:22;2.73;;;1.97;;
37047;SDS011;23227;48.780;9.210;2023-04-25T11:53:25;2.13;;;1.73;;
37047;SDS011;23227;48.780;9.210;2023-04-25T11:56:29;2.70;;;1.80;;
37047;SDS011;23227;48.780;9.210;2023-04-25T11:59:32;3.53;;;1.77;;
37047;SDS011;23227;48.780;9.210;2023-04-25T12:02:35;2.57;;;2.13;;
37047;SDS011;23227;48.780;9.210;2023-04-25T12:05:39;3.78;;;2.33;;
37047;SDS011;23227;48.780;9.210;2023-04-25T12:12:05;3.60;;;2.67;;
37047;SDS011;23227;48.780;9.210;2023-04-25T12:15:08;4.90;;;2.45;;
37047;SDS011;23227;48.780;9.210;2023-04-25T12:18:12;9.20;;;2.53;;
37047;SDS011;23227;48.780;9.210;2023-04-25T12:21:16;4.73;;;3.03;;
37047;SDS011;23227;48.780;9.210;2023-04-25T12:24:21;3.83;;;2.73;;
37047;SDS011;23227;48.780;9.210;2023-04-25T12:27:26;3.57;;;2.53;;
37047;SDS011;23227;48.780;9.210;2023-04-25T12:30:29;4.78;;;2.15;;
37047;SDS011;23227;48.780;9.210;2023-04-25T12:33:33;3.97;;;3.10;;
37047;SDS011;23227;48.780;9.210;2023-04-25T12:36:38;4.90;;;3.57;;
37047;SDS011;23227;48.780;9.210;2023-04-25T12:39:41;5.83;;;3.13;;
37047;SDS011;23227;48.780;9.210;2023-04-25T12:42:44;5.10;;;2.93;;
37047;SDS011;23227;48.780;9.210;2023-04-25T12:48:51;4.32;;;2.83;;
37047;SDS011;23227;48.780;9.210;2023-04-25T12:51:55;5.37;;;3.20;;
37047;SDS011;23227;48.780;9.210;2023-04-25T12:54:57;4.73;;;3.10;;
37047;SDS011;23227;48.780;9.210;2023-04-25T12:58:00;4.10;;;2.67;;
37047;SDS011;23227;48.780;9.210;2023-04-25T13:04:06;5.27;;;3.17;;
37047;SDS011;23227;48.780;9.210;2023-04-25T13:07:11;5.70;;;2.70;;
37047;SDS011;23227;48.780;9.210;2023-04-25T13:10:13;5.93;;;3.10;;
37047;SDS011;23227;48.780;9.210;2023-04-25T13:13:16;7.80;;;3.25;;
37047;SDS011;23227;48.780;9.210;2023-04-25T13:16:19;5.70;;;3.03;;
37047;SDS011;23227;48.780;9.210;2023-04-25T13:22:26;4.20;;;2.67;;
37047;SDS011;23227;48.780;9.210;2023-04-25T13:25:29;4.43;;;2.60;;
37047;SDS011;23227;48.780;9.210;2023-04-25T13:28:31;4.70;;;2.77;;
37047;SDS011;23227;48.780;9.210;2023-04-25T13:31:34;5.30;;;3.33;;
37047;SDS011;23227;48.780;9.210;2023-04-25T13:34:36;7.77;;;3.47;;
37047;SDS011;23227;48.780;9.210;2023-04-25T13:37:41;6.35;;;4.35;;
37047;SDS011;23227;48.780;9.210;2023-04-25T13:40:43;7.50;;;4.03;;
37047;SDS011;23227;48.780;9.210;2023-04-25T13:43:46;5.20;;;3.65;;
37047;SDS011;23227;48.780;9.210;2023-04-25T13:49:52;7.60;;;4.10;;
37047;SDS011;23227;48.780;9.210;2023-04-25T13:52:57;8.85;;;4.35;;
37047;SDS011;23227;48.780;9.210;2023-04-25T13:55:59;8.13;;;4.13;;
37047;SDS011;23227;48.780;9.210;2023-04-25T13:59:02;7.70;;;5.13;;
37047;SDS011;23227;48.780;9.210;2023-04-25T14:02:05;8.93;;;5.53;;
37047;SDS011;23227;48.780;9.210;2023-04-25T14:05:08;10.38;;;4.82;;
37047;SDS011;23227;48.780;9.210;2023-04-25T14:08:13;11.70;;;4.67;;
37047;SDS011;23227;48.780;9.210;2023-04-25T14:11:16;8.30;;;4.40;;
37047;SDS011;23227;48.780;9.210;2023-04-25T14:14:19;6.88;;;4.63;;
37047;SDS011;23227;48.780;9.210;2023-04-25T14:17:22;9.25;;;5.72;;
37047;SDS011;23227;48.780;9.210;2023-04-25T14:20:25;8.63;;;4.67;;
37047;SDS011;23227;48.780;9.210;2023-04-25T14:23:29;7.47;;;4.63;;
37047;SDS011;23227;48.780;9.210;2023-04-25T14:26:32;5.90;;;3.70;;
37047;SDS011;23227;48.780;9.210;2023-04-25T14:29:35;5.33;;;3.23;;
37047;SDS011;23227;48.780;9.210;2023-04-25T14:32:38;5.85;;;3.22;;
37047;SDS011;23227;48.780;9.210;2023-04-25T14:35:40;5.68;;;3.00;;
37047;SDS011;23227;48.780;9.210;2023-04-25T14:38:45;4.68;;;2.88;;
37047;SDS011;23227;48.780;9.210;2023-04-25T14:41:47;5.43;;;2.80;;
37047;SDS011;23227;48.780;9.210;2023-04-25T14:44:50;5.15;;;3.00;;
37047;SDS011;23227;48.780;9.210;2023-04-25T14:47:53;5.70;;;3.08;;
37047;SDS011;23227;48.780;9.210;2023-04-25T14:50:56;2.97;;;2.40;;
37047;SDS011;23227;48.780;9.210;2023-04-25T14:54:00;6.13;;;2.60;;
37047;SDS011;23227;48.780;9.210;2023-04-25T14:57:02;2.93;;;2.23;;
37047;SDS011;23227;48.780;9.210;2023-04-25T15:00:06;3.17;;;2.38;;
37047;SDS011;23227;48.780;9.210;2023-04-25T15:03:10;4.27;;;2.43;;
37047;SDS011;23227;48.780;9.210;2023-04-25T15:06:14;5.83;;;2.47;;
37047;SDS011;23227;48.780;9.210;2023-04-25T15:09:18;5.32;;;2.35;;
37047;SDS011;23227;48.780;9.210;2023-04-25T15:12:21;5.83;;;3.30;;
37047;SDS011;23227;48.780;9.210;2023-04-25T15:15:24;6.03;;;3.15;;
37047;SDS011;23227;48.780;9.210;2023-04-25T15:18:27;5.10;;;2.80;;
37047;SDS011;23227;48.780;9.210;2023-04-25T15:21:30;6.88;;;3.28;;
37047;SDS011;23227;48.780;9.210;2023-04-25T15:24:34;9.53;;;3.90;;
37047;SDS011;23227;48.780;9.210;2023-04-25T15:27:39;6.50;;;3.37;;
37047;SDS011;23227;48.780;9.210;2023-04-25T15:30:44;8.57;;;3.80;;
37047;SDS011;23227;48.780;9.210;2023-04-25T15:33:47;4.95;;;2.78;;
37047;SDS011;23227;48.780;9.210;2023-04-25T15:36:50;5.85;;;2.70;;
37047;SDS011;23227;48.780;9.210;2023-04-25T15:39:59;8.52;;;3.05;;
37047;SDS011;23227;48.780;9.210;2023-04-25T15:43:07;6.80;;;3.20;;
37047;SDS011;23227;48.780;9.210;2023-04-25T15:46:15;4.73;;;3.17;;
37047;SDS011;23227;48.780;9.210;2023-04-25T15:49:18;8.50;;;3.63;;
37047;SDS011;23227;48.780;9.210;2023-04-25T15:55:25;6.57;;;2.90;;
37047;SDS011;23227;48.780;9.210;2023-04-25T15:58:28;5.20;;;2.87;;
37047;SDS011;23227;48.780;9.210;2023-04-25T16:01:31;6.65;;;3.45;;
37047;SDS011;23227;48.780;9.210;2023-04-25T16:04:35;6.33;;;3.37;;
37047;SDS011;23227;48.780;9.210;2023-04-25T16:07:38;5.50;;;3.40;;
37047;SDS011;23227;48.780;9.210;2023-04-25T16:10:43;6.45;;;3.72;;
37047;SDS011;23227;48.780;9.210;2023-04-25T16:13:45;6.83;;;3.80;;
37047;SDS011;23227;48.780;9.210;2023-04-25T16:16:48;7.78;;;4.10;;
37047;SDS011;23227;48.780;9.210;2023-04-25T16:19:51;7.05;;;3.30;;
37047;SDS011;23227;48.780;9.210;2023-04-25T16:22:54;5.73;;;4.13;;
37047;SDS011;23227;48.780;9.210;2023-04-25T16:25:58;7.73;;;4.00;;
37047;SDS011;23227;48.780;9.210;2023-04-25T16:29:01;9.30;;;3.80;;
37047;SDS011;23227;48.780;9.210;2023-04-25T16:32:04;6.37;;;3.63;;
37047;SDS011;23227;48.780;9.210;2023-04-25T16:35:07;7.63;;;4.32;;
37047;SDS011;23227;48.780;9.210;2023-04-25T16:38:10;7.97;;;3.78;;
37047;SDS011;23227;48.780;9.210;2023-04-25T16:41:14;6.13;;;3.40;;
37047;SDS011;23227;48.780;9.210;2023-04-25T16:44:17;8.77;;;3.20;;
37047;SDS011;23227;48.780;9.210;2023-04-25T16:47:19;7.10;;;3.47;;
37047;SDS011;23227;48.780;9.210;2023-04-25T16:50:22;8.35;;;4.07;;
37047;SDS011;23227;48.780;9.210;2023-04-25T16:53:24;5.93;;;3.57;;
37047;SDS011;23227;48.780;9.210;2023-04-25T16:56:28;7.80;;;4.05;;
37047;SDS011;23227;48.780;9.210;2023-04-25T16:59:31;6.50;;;3.90;;
37047;SDS011;23227;48.780;9.210;2023-04-25T17:02:34;5.90;;;3.20;;
37047;SDS011;23227;48.780;9.210;2023-04-25T17:05:36;8.77;;;4.18;;
37047;SDS011;23227;48.780;9.210;2023-04-25T17:08:39;9.77;;;3.70;;
37047;SDS011;23227;48.780;9.210;2023-04-25T17:11:43;7.40;;;3.67;;
37047;SDS011;23227;48.780;9.210;2023-04-25T17:14:47;8.00;;;4.30;;
37047;SDS011;23227;48.780;9.210;2023-04-25T17:20:53;11.20;;;3.73;;
37047;SDS011;23227;48.780;9.210;2023-04-25T17:23:56;8.93;;;3.47;;
37047;SDS011;23227;48.780;9.210;2023-04-25T17:27:00;7.80;;;3.13;;
37047;SDS011;23227;48.780;9.210;2023-04-25T17:30:03;7.13;;;3.67;;
37047;SDS011;23227;48.780;9.210;2023-04-25T17:33:07;8.97;;;3.90;;
37047;SDS011;23227;48.780;9.210;2023-04-25T17:36:09;5.20;;;3.20;;
37047;SDS011;23227;48.780;9.210;2023-04-25T17:39:12;8.30;;;2.72;;
37047;SDS011;23227;48.780;9.210;2023-04-25T17:42:19;9.27;;;4.80;;
37047;SDS011;23227;48.780;9.210;2023-04-25T17:45:22;8.10;;;4.07;;
37047;SDS011;23227;48.780;9.210;2023-04-25T17:48:24;11.30;;;4.32;;
37047;SDS011;23227;48.780;9.210;2023-04-25T17:51:27;8.68;;;4.45;;
37047;SDS011;23227;48.780;9.210;2023-04-25T17:54:30;6.50;;;4.07;;
37047;SDS011;23227;48.780;9.210;2023-04-25T17:57:34;6.30;;;3.58;;
37047;SDS011;23227;48.780;9.210;2023-04-25T18:00:37;5.97;;;3.40;;
37047;SDS011;23227;48.780;9.210;2023-04-25T18:03:40;6.47;;;3.83;;
37047;SDS011;23227;48.780;9.210;2023-04-25T18:06:45;8.10;;;3.50;;
37047;SDS011;23227;48.780;9.210;2023-04-25T18:09:48;4.93;;;3.07;;
37047;SDS011;23227;48.780;9.210;2023-04-25T18:12:52;13.37;;;4.53;;
37047;SDS011;23227;48.780;9.210;2023-04-25T18:15:54;11.93;;;4.20;;
37047;SDS011;23227;48.780;9.210;2023-04-25T18:18:57;9.00;;;5.13;;
37047;SDS011;23227;48.780;9.210;2023-04-25T18:22:05;10.63;;;4.93;;
37047;SDS011;23227;48.780;9.210;2023-04-25T18:25:08;13.60;;;6.50;;
37047;SDS011;23227;48.780;9.210;2023-04-25T18:28:12;12.20;;;5.57;;
37047;SDS011;23227;48.780;9.210;2023-04-25T18:31:15;8.70;;;5.50;;
37047;SDS011;23227;48.780;9.210;2023-04-25T18:34:20;10.40;;;5.77;;
37047;SDS011;23227;48.780;9.210;2023-04-25T18:37:27;10.27;;;6.00;;
37047;SDS011;23227;48.780;9.210;2023-04-25T18:40:30;9.23;;;5.40;;
37047;SDS011;23227;48.780;9.210;2023-04-25T18:43:34;12.50;;;5.40;;
37047;SDS011;23227;48.780;9.210;2023-04-25T18:46:36;8.20;;;5.40;;
37047;SDS011;23227;48.780;9.210;2023-04-25T18:49:41;9.47;;;5.93;;
37047;SDS011;23227;48.780;9.210;2023-04-25T18:52:44;10.93;;;6.00;;
37047;SDS011;23227;48.780;9.210;2023-04-25T18:55:46;13.27;;;6.57;;
37047;SDS011;23227;48.780;9.210;2023-04-25T18:58:50;15.40;;;6.70;;